Port Mansfield, TX (78598)

3:54 PM CDT on May 26, 2017 (GMT -0500)
Port Mansfield South Shore | | Change Station
Active Advisory: Special Statement

Elev 5 ft 26.55 °N, 97.42 °W | Updated 12 seconds ago

Partly Cloudy
Partly Cloudy
89.6 °F
Feels Like 103 °F
N
12.0
Wind Variable Wind from ESE

Today
High -- | Low -- °F
--% Chance of Precip.
Yesterday
High -- | Low -- °F
Precip. -- in
Pressure 29.78 in
Visibility 10.0 miles
Clouds Scattered Clouds 3800 ft
Heat Index 103 °F
Dew Point 77 °F
Humidity 68%
Rainfall 0.00 in
Snow Depth Not available.
6:37 AM 8:15 PM
New Moon, 2% visible
METAR KHRL 262052Z 18014G25KT 10SM SCT038 36/26 A2978 RMK AO2 PK WND 17028/2024 SLP084 T03610256 56011
Pressure 29.78 in
Visibility 10.0 miles
Clouds Scattered Clouds 3800 ft
Heat Index 103 °F
Dew Point 77 °F
Humidity 68%
Rainfall 0.00 in
Snow Depth Not available.
6:37 AM 8:15 PM
New Moon, 2% visible
METAR KHRL 262052Z 18014G25KT 10SM SCT038 36/26 A2978 RMK AO2 PK WND 17028/2024 SLP084 T03610256 56011

Get Your Daily Forecast Email!

Thanks for signing up!

Be on the lookout for a verification email in your inbox.

You'll start receiving severe weather alerts in your inbox..

×

10-Day Weather Forecast

Almanac

Astronomy

May. 26, 2017 Rise Set
Actual Time
Civil Twilight
Nautical Twilight
Astronomical Twilight
Moon
Length of Visible Light
Length of Day
Tomorrow will be .
, % of the Moon is Illuminated

Today's Extremes

State Highs State Lows

Community

WunderPhotos

Category 6

Welcome to Category 6. This is the collective home for Weather Underground's featured writeups by Dr. Jeff Masters (right), Bob Henson (left), Chris Burt, and other regular contributors.

Nearby

Air Quality

  Air Quality AQ Index Pollutant
Not available.

Snow Depth

Station Depth Elevation

Earthquake Activity

City Distance Mag. Time & Date
Minimum magnitude displayed is 2.5.

Coastal Water Temperatures

Place Temperature

Stations

Nearby Weather Stations

Station Location Temp. Windchill Dew Point Humidity Wind Precip. Elev Updated Type
                   

Watches & Warnings

Special Statement
Issued: 2:46 PM CDT May. 26, 2017 – National Weather Service

... Heat index values between 107 and 112 degrees possible
Saturday...

Heat will increase under a mid level ridge Saturday afternoon.
High temperatures will range from the mid 90s near the coast to
near or slightly above the century mark inland, and will combine
with dew points in the 60s and 70s to produce heat index or feels
like temperatures between 107 and 112 for a few hours across the
area Saturday afternoon.

Residents planning outdoor activities should drink plenty of
water, wear light weight and light colored clothing, and take
frequent breaks from the heat. Young children and pets should
never be left unattended in vehicles, but this is especially true
during warm or hot weather when car interiors can reach lethal
temperatures in a matter of minutes.


54/59